createdAt,value
2023-01-01T00:03:32.518Z,16.72
2023-01-01T00:08:37.510Z,16.67
2023-01-01T00:13:42.780Z,16.54
2023-01-01T00:18:45.699Z,16.61
2023-01-01T00:23:49.947Z,16.58
2023-01-01T00:28:53.119Z,16.51
2023-01-01T00:33:56.539Z,16.45
2023-01-01T00:39:02.839Z,16.41
2023-01-01T00:44:05.823Z,16.29
2023-01-01T00:49:08.804Z,16.23
2023-01-01T00:54:13.384Z,16.28
2023-01-01T00:59:16.322Z,16.29
2023-01-01T01:04:19.215Z,16.38
2023-01-01T01:09:23.545Z,16.33
2023-01-01T01:14:26.464Z,16.42
2023-01-01T01:19:29.489Z,16.33
2023-01-01T01:24:33.785Z,16.34
2023-01-01T01:29:36.675Z,16.34
2023-01-01T01:34:39.742Z,16.24
2023-01-01T01:39:46.749Z,16.28
2023-01-01T01:44:56.733Z,16.17
2023-01-01T01:50:05.268Z,16.03
2023-01-01T01:55:10.992Z,16.04
2023-01-01T02:00:15.338Z,16.21
2023-01-01T02:05:19.904Z,16.25
2023-01-01T02:10:24.198Z,16.14
2023-01-01T02:15:31.505Z,16.09
2023-01-01T02:20:41.940Z,16.03
2023-01-01T02:25:58.988Z,16.11
2023-01-01T02:31:03.461Z,15.96
2023-01-01T02:36:08.177Z,16.01
2023-01-01T02:41:15.213Z,15.89
2023-01-01T02:51:30.519Z,16.10
2023-01-01T02:56:40.949Z,15.94
2023-01-01T03:01:50.998Z,16.05
2023-01-01T03:07:01.117Z,16.06
2023-01-01T03:12:10.984Z,16.01
2023-01-01T03:17:22.671Z,16.07
2023-01-01T03:22:31.406Z,16.13
2023-01-01T03:27:38.575Z,16.24
2023-01-01T03:33:01.794Z,16.02
2023-01-01T03:38:09.386Z,16.13
2023-01-01T03:43:18.288Z,15.92
2023-01-01T03:48:22.625Z,15.82
2023-01-01T03:53:38.428Z,15.86
2023-01-01T03:58:46.136Z,15.81
2023-01-01T04:03:51.290Z,15.97
2023-01-01T04:08:59.623Z,15.92
2023-01-01T04:14:02.597Z,15.77
2023-01-01T04:19:07.631Z,16.00
2023-01-01T04:24:10.939Z,15.98
2023-01-01T04:29:13.845Z,16.04
2023-01-01T04:34:18.379Z,15.94
2023-01-01T04:39:21.286Z,16.02
2023-01-01T04:44:24.154Z,16.03
2023-01-01T04:49:28.556Z,15.93
2023-01-01T04:54:31.561Z,15.94
2023-01-01T04:59:34.469Z,16.02
2023-01-01T05:04:38.716Z,16.20
2023-01-01T05:09:41.595Z,15.95
2023-01-01T05:14:44.552Z,16.18
2023-01-01T05:19:48.783Z,16.07
2023-01-01T05:24:51.634Z,16.03
2023-01-01T05:29:54.488Z,16.04
2023-01-01T05:34:58.740Z,16.02
2023-01-01T05:40:01.667Z,15.97
2023-01-01T05:45:05.088Z,16.00
2023-01-01T05:55:12.460Z,15.89
2023-01-01T06:00:16.519Z,15.79
2023-01-01T06:05:20.756Z,16.03
2023-01-01T06:10:23.605Z,15.85
2023-01-01T06:15:26.704Z,15.84
2023-01-01T06:20:30.989Z,15.79
2023-01-01T06:25:35.543Z,15.69
2023-01-01T06:30:38.673Z,15.83
2023-01-01T06:35:44.271Z,15.66
2023-01-01T06:40:56.803Z,15.63
2023-01-01T06:46:04.137Z,15.58
2023-01-01T06:51:11.146Z,15.53
2023-01-01T06:56:14.259Z,15.45
2023-01-01T07:01:19.219Z,15.38
2023-01-01T07:06:24.952Z,15.36
2023-01-01T07:11:28.673Z,15.33
2023-01-01T07:16:31.562Z,15.30
2023-01-01T07:21:43.395Z,15.34
2023-01-01T07:26:47.025Z,15.44
2023-01-01T07:31:49.957Z,15.43
2023-01-01T07:36:55.302Z,15.42
2023-01-01T07:41:58.260Z,15.42
2023-01-01T07:47:04.789Z,15.48
2023-01-01T07:52:09.062Z,15.39
2023-01-01T07:57:12.674Z,15.43
2023-01-01T08:02:15.681Z,15.40
2023-01-01T08:07:20.069Z,15.47
2023-01-01T08:12:23.072Z,15.42
2023-01-01T08:17:26.023Z,15.37
2023-01-01T08:22:30.382Z,15.34
2023-01-01T08:27:33.427Z,15.51
2023-01-01T08:32:36.391Z,15.57
2023-01-01T08:37:40.672Z,15.58
2023-01-01T08:42:43.538Z,15.59
2023-01-01T08:47:46.508Z,15.63
2023-01-01T08:52:50.830Z,15.72
2023-01-01T08:57:53.740Z,15.80
2023-01-01T09:02:56.656Z,15.88
2023-01-01T09:08:00.953Z,15.92
2023-01-01T09:13:03.932Z,15.98
2023-01-01T09:18:07.128Z,15.94
2023-01-01T09:23:12.460Z,15.86
2023-01-01T09:28:18.159Z,15.99
2023-01-01T09:33:24.797Z,16.00
2023-01-01T09:38:29.056Z,16.11
2023-01-01T09:43:41.568Z,16.16
2023-01-01T09:48:54.411Z,16.22
2023-01-01T09:54:03.424Z,16.21
2023-01-01T09:59:06.339Z,16.30
2023-01-01T10:04:28.350Z,16.41
2023-01-01T10:09:41.630Z,16.49
2023-01-01T10:14:50.467Z,16.56
2023-01-01T10:19:55.813Z,16.71
2023-01-01T10:25:02.929Z,16.88
2023-01-01T10:30:15.335Z,16.80
2023-01-01T10:35:22.977Z,16.77
2023-01-01T10:40:31.586Z,16.83
2023-01-01T10:45:38.645Z,16.90
2023-01-01T10:50:47.450Z,17.06
2023-01-01T10:55:58.302Z,17.13
2023-01-01T11:01:02.760Z,17.09
2023-01-01T11:06:11.767Z,17.26
2023-01-01T11:11:22.384Z,17.34
2023-01-01T11:16:26.627Z,17.43
2023-01-01T11:21:29.578Z,17.57
2023-01-01T11:26:34.273Z,17.54
2023-01-01T11:31:40.016Z,17.65
2023-01-01T11:36:42.935Z,17.45
2023-01-01T11:41:49.459Z,17.45
2023-01-01T11:46:52.490Z,17.51
2023-01-01T11:51:55.648Z,17.46
2023-01-01T11:57:05.069Z,17.43
2023-01-01T12:02:14.559Z,17.40
2023-01-01T12:07:22.086Z,17.37
2023-01-01T12:12:31.906Z,17.26
2023-01-01T12:17:39.322Z,17.35
2023-01-01T12:22:42.959Z,17.27
2023-01-01T12:28:04.495Z,17.35
2023-01-01T12:33:29.331Z,17.32
2023-01-01T12:39:08.494Z,17.28
2023-01-01T12:44:26.770Z,17.29
2023-01-01T12:49:47.670Z,17.14
2023-01-01T12:55:36.568Z,17.04
2023-01-01T13:00:44.387Z,17.00
2023-01-01T13:05:51.549Z,16.95
2023-01-01T13:10:57.547Z,16.88
2023-01-01T13:16:02.122Z,16.70
2023-01-01T13:21:19.874Z,16.68
2023-01-01T13:26:49.129Z,16.64
2023-01-01T13:32:07.599Z,16.68
2023-01-01T13:37:53.467Z,16.58
2023-01-01T13:43:07.455Z,16.60
2023-01-01T13:48:26.115Z,16.55
2023-01-01T13:53:46.648Z,16.46
2023-01-01T13:59:07.844Z,16.41
2023-01-01T14:04:28.461Z,16.33
2023-01-01T14:09:31.362Z,16.37
2023-01-01T14:14:36.250Z,16.26
2023-01-01T14:19:42.464Z,16.17
2023-01-01T14:24:48.306Z,16.09
2023-01-01T14:29:52.902Z,16.10
2023-01-01T14:35:04.094Z,15.98
2023-01-01T14:40:20.915Z,15.88
2023-01-01T14:45:25.401Z,15.84
2023-01-01T14:50:32.408Z,15.76
2023-01-01T14:55:41.383Z,15.61
2023-01-01T15:00:44.636Z,15.51
2023-01-01T15:05:59.745Z,15.47
2023-01-01T15:11:05.135Z,15.45
2023-01-01T15:16:18.389Z,15.43
2023-01-01T15:21:42.679Z,15.40
2023-01-01T15:26:50.589Z,15.38
2023-01-01T15:31:57.421Z,15.16
2023-01-01T15:37:13.648Z,15.10
2023-01-01T15:42:24.871Z,15.22
2023-01-01T15:47:27.786Z,15.17
2023-01-01T15:52:33.208Z,15.05
2023-01-01T15:57:36.239Z,14.96
2023-01-01T16:02:39.355Z,14.87
2023-01-01T16:07:44.041Z,14.97
2023-01-01T16:12:46.909Z,14.85
2023-01-01T16:17:49.923Z,14.80
2023-01-01T16:22:54.232Z,14.84
2023-01-01T16:27:58.293Z,14.81
2023-01-01T16:33:01.889Z,14.87
2023-01-01T16:38:06.187Z,14.69
2023-01-01T16:43:16.922Z,14.88
2023-01-01T16:48:19.804Z,14.83
2023-01-01T16:53:24.080Z,14.66
2023-01-01T17:03:49.976Z,14.56
2023-01-01T17:08:54.298Z,14.70
2023-01-01T17:13:58.632Z,14.53
2023-01-01T17:19:17.648Z,14.60
2023-01-01T17:24:23.330Z,14.60
2023-01-01T17:29:27.058Z,14.64
2023-01-01T17:34:29.970Z,14.57
2023-01-01T17:39:34.259Z,14.60
2023-01-01T17:44:37.186Z,14.54
2023-01-01T17:49:41.230Z,14.61
2023-01-01T17:54:45.567Z,14.48
2023-01-01T17:59:48.520Z,14.46
2023-01-01T18:04:52.250Z,14.55
2023-01-01T18:09:56.591Z,14.44
2023-01-01T18:14:59.501Z,14.51
2023-01-01T18:20:02.537Z,14.40
2023-01-01T18:25:07.865Z,14.50
2023-01-01T18:30:11.329Z,14.46
2023-01-01T18:35:14.256Z,14.42
2023-01-01T18:40:19.591Z,14.51
2023-01-01T18:45:24.535Z,14.67
2023-01-01T18:50:29.799Z,14.53
2023-01-01T18:55:34.086Z,14.68
2023-01-01T19:00:38.325Z,14.71
2023-01-01T19:05:41.264Z,14.58
2023-01-01T19:10:48.203Z,14.37
2023-01-01T19:15:54.759Z,14.28
2023-01-01T19:21:03.529Z,14.49
2023-01-01T19:26:15.622Z,14.38
2023-01-01T19:31:18.892Z,14.59
2023-01-01T19:36:22.178Z,14.64
2023-01-01T19:41:26.421Z,14.62
2023-01-01T19:46:29.661Z,14.64
2023-01-01T19:51:32.595Z,14.73
2023-01-01T19:56:36.832Z,14.75
2023-01-01T20:01:39.934Z,14.85
2023-01-01T20:06:43.034Z,14.98
2023-01-01T20:11:50.730Z,14.96
2023-01-01T20:16:53.912Z,14.90
2023-01-01T20:22:15.102Z,14.71
2023-01-01T20:27:24.269Z,14.68
2023-01-01T20:32:28.095Z,14.58
2023-01-01T20:37:40.623Z,14.22
2023-01-01T20:42:44.945Z,14.06
2023-01-01T20:47:47.851Z,13.98
2023-01-01T20:52:50.799Z,14.02
2023-01-01T20:57:55.095Z,13.85
2023-01-01T21:02:58.110Z,13.74
2023-01-01T21:08:01.037Z,13.55
2023-01-01T21:13:05.519Z,13.59
2023-01-01T21:18:11.830Z,13.55
2023-01-01T21:23:18.293Z,13.50
2023-01-01T21:28:23.280Z,13.52
2023-01-01T21:33:28.426Z,13.98
2023-01-01T21:38:32.800Z,13.61
2023-01-01T21:43:39.813Z,14.09
2023-01-01T21:48:47.100Z,13.73
2023-01-01T21:53:50.155Z,13.57
2023-01-01T21:59:12.217Z,13.38
2023-01-01T22:04:21.264Z,13.28
2023-01-01T22:09:26.471Z,13.38
2023-01-01T22:14:38.796Z,13.17
2023-01-01T22:19:42.370Z,13.28
2023-01-01T22:24:48.139Z,13.16
2023-01-01T22:29:52.489Z,12.98
2023-01-01T22:35:00.313Z,12.98
2023-01-01T22:40:04.587Z,12.99
2023-01-01T22:45:14.969Z,12.97
2023-01-01T22:50:22.671Z,13.56
2023-01-01T22:55:25.614Z,13.32
2023-01-01T23:00:29.873Z,13.23
2023-01-01T23:05:32.795Z,13.07
2023-01-01T23:10:35.820Z,13.48
2023-01-01T23:15:58.008Z,14.26
2023-01-01T23:21:02.351Z,14.38
2023-01-01T23:26:06.560Z,14.15
2023-01-01T23:31:13.104Z,13.75
2023-01-01T23:36:16.039Z,13.91
2023-01-01T23:41:18.983Z,13.95
2023-01-01T23:46:23.621Z,13.77
2023-01-01T23:51:26.753Z,13.94
2023-01-01T23:56:29.669Z,14.34
